Time;durP1;ratioP1;P1;durP2;ratioP2;P2;SDS_P1;SDS_P2;PMS_P1;PMS_P2;Temp;Humidity;BMP_temperature;BMP_pressure;BME280_temperature;BME280_humidity;BME280_pressure;Samples;Min_cycle;Max_cycle;Signal;HPM_P1;HPM_P2
2021/07/04 00:01:14;;;;;;;5.17;4.87;;;;;;;24.55;45.71;94188.94;833857;71;32643;-76
2021/07/04 00:16:10;;;;;;;4.90;4.60;;;;;;;24.36;46.15;94182.02;828482;71;29731;-78
2021/07/04 00:31:09;;;;;;;4.40;4.20;;;;;;;24.39;46.00;94167.83;834069;71;29717;-77
2021/07/04 00:46:10;;;;;;;4.83;4.50;;;;;;;24.45;45.91;94153.47;828212;71;30424;-78
2021/07/04 01:01:08;;;;;;;4.90;4.60;;;;;;;24.34;45.96;94148.12;828326;71;29828;-75
2021/07/04 01:16:14;;;;;;;4.67;4.37;;;;;;;24.39;46.09;94158.44;834387;71;32706;-76
2021/07/04 01:31:08;;;;;;;5.53;5.03;;;;;;;24.45;46.15;94149.44;830100;71;30261;-75
2021/07/04 01:46:08;;;;;;;4.60;4.30;;;;;;;24.36;46.12;94139.87;828355;71;29954;-76
2021/07/04 02:01:14;;;;;;;4.87;4.57;;;;;;;24.29;46.40;94127.82;827570;71;33159;-76
2021/07/04 02:16:08;;;;;;;5.43;5.07;;;;;;;24.22;45.89;94137.20;829203;71;29764;-77
2021/07/04 02:31:09;;;;;;;6.10;5.50;;;;;;;22.40;48.85;94132.18;835123;71;30283;-77
2021/07/04 02:46:09;;;;;;;5.30;4.93;;;;;;;22.45;53.69;94140.98;834215;71;30406;-79
2021/07/04 03:16:15;;;;;;;5.60;5.20;;;;;;;23.74;48.31;94145.55;827600;71;33015;-79
2021/07/04 03:31:08;;;;;;;5.57;5.20;;;;;;;24.02;47.73;94166.30;834239;71;29682;-77
2021/07/04 03:46:15;;;;;;;5.80;5.40;;;;;;;24.28;47.18;94166.50;835285;71;32883;-77
2021/07/04 04:01:17;;;;;;;6.73;6.13;;;;;;;24.67;46.47;94176.46;829476;71;30250;-79
2021/07/04 04:16:08;;;;;;;5.80;5.40;;;;;;;25.05;45.76;94170.64;828710;71;29690;-78
2021/07/04 04:31:10;;;;;;;6.77;6.27;;;;;;;25.44;44.88;94173.20;828282;71;30235;-77
2021/07/04 04:46:09;;;;;;;7.70;7.10;;;;;;;26.02;43.83;94184.44;828247;71;30743;-75
2021/07/04 05:01:09;;;;;;;6.40;6.00;;;;;;;26.43;42.66;94187.03;828221;71;30265;-77
2021/07/04 05:16:19;;;;;;;6.63;6.13;;;;;;;26.96;41.15;94197.91;828018;71;32723;-76
2021/07/04 05:31:08;;;;;;;6.60;6.10;;;;;;;27.48;41.02;94189.67;834011;71;29840;-75
2021/07/04 05:46:14;;;;;;;6.50;6.00;;;;;;;27.91;40.36;94206.66;833969;71;32706;-76
2021/07/04 06:01:14;;;;;;;6.10;5.70;;;;;;;28.02;39.63;94211.15;827539;71;32741;-76
2021/07/04 06:16:09;;;;;;;6.70;6.20;;;;;;;28.09;39.43;94198.33;829171;71;30189;-75
2021/07/04 06:31:14;;;;;;;7.57;6.97;;;;;;;28.50;39.30;94195.98;827565;71;32712;-77
2021/07/04 06:46:09;;;;;;;6.67;6.17;;;;;;;28.81;38.08;94191.80;833981;71;30358;-76
2021/07/04 07:01:27;;;;;;;7.03;6.43;;;;;;;29.07;37.23;94189.43;829052;71;32876;-78
2021/07/04 07:16:14;;;;;;;6.77;6.27;;;;;;;29.44;36.78;94170.02;834276;71;32636;-77
2021/07/04 07:31:09;;;;;;;7.07;6.57;;;;;;;29.76;36.40;94159.91;833886;71;29796;-77
2021/07/04 07:46:08;;;;;;;6.40;5.90;;;;;;;30.31;35.76;94154.25;828194;71;30225;-77
2021/07/04 08:01:15;;;;;;;7.10;6.20;;;;;;;30.65;34.69;94153.62;833895;71;32008;-76
2021/07/04 08:16:08;;;;;;;7.17;6.33;;;;;;;30.18;35.18;94136.37;828235;71;29695;-78
2021/07/04 08:31:14;;;;;;;7.10;6.60;;;;;;;30.75;34.61;94139.78;827726;71;32651;-76
2021/07/04 08:46:13;;;;;;;5.93;5.53;;;;;;;30.34;34.45;94140.45;834121;71;29758;-76
2021/07/04 09:16:29;;;;;;;4.47;4.10;;;;;;;30.38;32.08;94109.23;821148;71;32633;-80
2021/07/04 09:31:11;;;;;;;4.70;4.40;;;;;;;31.05;30.82;94105.95;827904;71;30781;-77
2021/07/04 10:01:10;;;;;;;3.70;3.50;;;;;;;31.70;29.09;94088.00;828289;71;30242;-76
2021/07/04 10:16:19;;;;;;;3.57;3.37;;;;;;;31.37;28.57;94068.44;827191;71;32784;-77
2021/07/04 10:31:24;;;;;;;5.10;4.80;;;;;;;31.25;29.28;94055.02;829008;71;32748;-76
2021/07/04 10:46:08;;;;;;;5.67;5.37;;;;;;;30.83;31.64;94046.88;834072;71;29792;-78
2021/07/04 11:01:10;;;;;;;6.53;5.97;;;;;;;30.24;33.38;94035.86;833943;71;29730;-76
2021/07/04 11:16:18;;;;;;;7.13;6.50;;;;;;;30.16;33.60;94030.63;835370;71;32681;-82
2021/07/04 11:31:19;;;;;;;6.30;5.90;;;;;;;30.29;33.21;94022.58;828165;71;30260;-76
2021/07/04 11:46:21;;;;;;;7.37;6.67;;;;;;;30.48;33.01;94012.06;824318;71;33137;-82
2021/07/04 12:01:22;;;;;;;6.40;6.00;;;;;;;30.19;33.69;94012.76;828003;70;32726;-76
2021/07/04 12:16:19;;;;;;;7.20;6.70;;;;;;;29.86;33.47;94004.70;828445;71;32710;-79
2021/07/04 12:31:11;;;;;;;8.00;7.50;;;;;;;30.08;32.50;93995.45;828164;71;29697;-78
2021/07/04 12:46:23;;;;;;;6.50;6.10;;;;;;;30.14;30.76;93987.58;827689;71;32802;-78
2021/07/04 13:01:30;;;;;;;6.57;6.17;;;;;;;29.97;30.89;93985.51;833733;71;33316;-79
2021/07/04 13:16:15;;;;;;;6.40;6.00;;;;;;;29.86;31.82;93982.30;834102;71;32669;-81
2021/07/04 13:31:32;;;;;;;6.40;6.00;;;;;;;29.73;31.04;93989.00;835196;71;33343;-83
2021/07/04 13:46:15;;;;;;;6.10;5.70;;;;;;;29.60;31.17;93978.65;828078;71;32633;-81
2021/07/04 14:01:16;;;;;;;5.60;5.20;;;;;;;29.39;30.59;93983.38;821106;71;32790;-81
2021/07/04 14:16:19;;;;;;;6.00;5.60;;;;;;;29.04;29.08;93984.92;824183;71;32747;-82
2021/07/04 14:31:17;;;;;;;5.43;5.13;;;;;;;28.81;31.16;93976.33;834403;71;32722;-83
2021/07/04 14:46:18;;;;;;;7.50;6.83;;;;;;;28.54;32.03;93976.66;828518;71;32871;-79
2021/07/04 15:16:09;;;;;;;7.27;6.77;;;;;;;28.11;31.68;93988.23;834022;71;30756;-77
2021/07/04 15:31:10;;;;;;;7.03;6.43;;;;;;;27.99;33.20;93984.04;833982;71;30392;-75
2021/07/04 15:46:10;;;;;;;8.50;7.83;;;;;;;27.82;33.81;93987.17;828171;71;30857;-77
2021/07/04 16:01:11;;;;;;;8.50;7.70;;;;;;;27.58;32.96;93986.59;827546;71;30926;-77
2021/07/04 16:16:13;;;;;;;8.70;8.03;;;;;;;27.30;34.24;93994.52;834270;71;32489;-76
2021/07/04 16:31:08;;;;;;;8.40;7.80;;;;;;;;;;828192;71;29774;-81
2021/07/04 16:46:08;;;;;;;7.70;7.10;;;;;;;;;;828647;71;30763;-76
2021/07/04 17:01:09;;;;;;;8.10;7.50;;;;;;;26.46;35.19;93989.22;827464;71;30270;-77
2021/07/04 17:16:18;;;;;;;8.80;7.90;;;;;;;26.03;36.84;93985.62;827999;71;32810;-80
2021/07/04 17:31:14;;;;;;;7.97;7.27;;;;;;;25.98;37.63;94000.27;828638;71;32733;-76
2021/07/04 17:46:15;;;;;;;9.47;8.67;;;;;;;25.90;38.37;94016.87;828515;71;32744;-77
2021/07/04 18:01:08;;;;;;;51.43;21.03;;;;;;;25.81;39.35;94003.08;832150;71;29665;-78
2021/07/04 18:16:08;;;;;;;16.47;9.83;;;;;;;25.88;39.56;94009.16;828878;71;30271;-76
2021/07/04 18:31:15;;;;;;;7.23;6.63;;;;;;;25.62;38.19;94024.55;827366;71;32685;-78
2021/07/04 18:46:15;;;;;;;6.70;6.00;;;;;;;25.18;38.72;94028.84;834042;71;32693;-76
2021/07/04 19:01:12;;;;;;;6.63;6.03;;;;;;;24.85;39.07;94032.83;830999;71;32546;-78
2021/07/04 19:16:08;;;;;;;7.97;7.10;;;;;;;24.58;39.36;94036.01;828315;71;29747;-77
2021/07/04 19:31:15;;;;;;;7.33;6.73;;;;;;;24.38;39.92;94035.65;832076;71;32674;-82
2021/07/04 19:46:16;;;;;;;12.07;7.10;;;;;;;24.15;40.77;94036.09;820902;71;32764;-77
2021/07/04 20:01:14;;;;;;;7.33;6.60;;;;;;;24.38;41.91;94029.53;825688;71;32835;-78
2021/07/04 20:16:09;;;;;;;10.53;9.53;;;;;;;24.87;41.72;94023.81;828435;71;29727;-77
2021/07/04 20:31:09;;;;;;;8.00;7.20;;;;;;;25.10;41.08;94024.67;828167;71;29796;-78
2021/07/04 20:46:17;;;;;;;6.93;6.33;;;;;;;25.24;40.81;94023.08;823961;71;31833;-79
2021/07/04 21:16:14;;;;;;;6.43;5.83;;;;;;;25.17;41.10;94014.46;820579;71;31807;-79
2021/07/04 21:31:13;;;;;;;7.20;6.50;;;;;;;25.17;41.21;94017.91;820795;71;32227;-76
2021/07/04 21:46:09;;;;;;;6.67;6.07;;;;;;;25.09;41.73;94018.34;828228;71;29736;-77
2021/07/04 22:01:09;;;;;;;7.20;6.57;;;;;;;24.97;41.91;94008.81;828283;71;29191;-78
2021/07/04 22:16:15;;;;;;;6.83;6.23;;;;;;;24.93;42.04;93998.67;827377;71;32239;-78
2021/07/04 22:31:17;;;;;;;7.20;6.60;;;;;;;24.71;42.66;93998.77;834212;71;31721;-77
2021/07/04 22:46:14;;;;;;;7.30;6.70;;;;;;;24.70;42.82;93991.89;834337;71;31722;-79
2021/07/04 23:01:15;;;;;;;7.43;6.83;;;;;;;24.73;43.05;93984.38;829850;70;30416;-79
2021/07/04 23:16:14;;;;;;;7.60;7.00;;;;;;;24.63;43.51;93975.05;828805;71;30970;-77
2021/07/04 23:31:14;;;;;;;8.23;7.43;;;;;;;24.53;45.00;93967.23;827549;71;31773;-78
2021/07/04 23:46:08;;;;;;;8.30;7.50;;;;;;;24.56;45.01;93958.41;834159;71;28715;-77
